createdAt,value
2023-05-10T00:00:39.266Z,98.59
2023-05-10T00:01:39.265Z,98.69
2023-05-10T00:02:39.279Z,98.54
2023-05-10T00:03:39.278Z,98.39
2023-05-10T00:04:39.175Z,98.59
2023-05-10T00:05:39.159Z,99.04
2023-05-10T00:06:39.159Z,99.70
2023-05-10T00:07:39.252Z,99.75
2023-05-10T00:08:39.129Z,99.95
2023-05-10T00:09:39.158Z,99.95
2023-05-10T00:10:39.110Z,99.55
2023-05-10T00:11:39.145Z,99.95
2023-05-10T00:12:39.097Z,99.85
2023-05-10T00:13:39.150Z,99.95
2023-05-10T00:14:39.081Z,99.75
2023-05-10T00:15:39.117Z,99.65
2023-05-10T00:16:39.098Z,98.84
2023-05-10T00:17:39.151Z,99.60
2023-05-10T00:18:39.057Z,99.99
2023-05-10T00:19:39.049Z,99.90
2023-05-10T00:20:39.024Z,99.75
2023-05-10T00:21:39.050Z,99.85
2023-05-10T00:22:39.020Z,99.65
2023-05-10T00:23:39.076Z,99.69
2023-05-10T00:24:39.017Z,99.90
2023-05-10T00:25:39.016Z,99.90
2023-05-10T00:26:38.998Z,99.99
2023-05-10T00:27:39.005Z,99.99
2023-05-10T00:28:38.970Z,99.99
2023-05-10T00:29:38.996Z,99.99
2023-05-10T00:30:38.981Z,99.99
2023-05-10T00:31:38.974Z,99.99
2023-05-10T00:32:38.950Z,99.99
2023-05-10T00:33:38.954Z,99.99
2023-05-10T00:34:38.944Z,99.99
2023-05-10T00:35:38.935Z,99.99
2023-05-10T00:36:38.908Z,99.99
2023-05-10T00:37:38.924Z,99.99
2023-05-10T00:38:38.904Z,99.99
2023-05-10T00:39:38.894Z,99.99
2023-05-10T00:40:38.897Z,99.99
2023-05-10T00:41:38.869Z,99.99
2023-05-10T00:42:38.856Z,99.99
2023-05-10T00:43:38.852Z,99.99
2023-05-10T00:44:38.862Z,99.99
2023-05-10T00:45:38.848Z,99.99
2023-05-10T00:46:38.832Z,99.99
2023-05-10T00:47:38.908Z,99.99
2023-05-10T00:48:38.799Z,99.99
2023-05-10T00:49:38.802Z,99.99
2023-05-10T00:50:38.796Z,99.99
2023-05-10T00:51:38.783Z,99.99
2023-05-10T00:52:38.881Z,99.99
2023-05-10T00:53:38.772Z,99.99
2023-05-10T00:54:38.773Z,99.99
2023-05-10T00:55:38.808Z,99.99
2023-05-10T00:56:38.760Z,99.99
2023-05-10T00:57:38.763Z,99.99
2023-05-10T00:58:38.716Z,99.99
2023-05-10T00:59:38.723Z,99.99
2023-05-10T01:00:38.714Z,99.99
2023-05-10T01:01:38.807Z,99.99
2023-05-10T01:02:38.783Z,99.99
2023-05-10T01:03:38.744Z,99.99
2023-05-10T01:04:38.713Z,99.99
2023-05-10T01:05:38.671Z,99.99
2023-05-10T01:06:38.658Z,99.99
2023-05-10T01:07:38.636Z,99.99
2023-05-10T01:08:38.624Z,99.99
2023-05-10T01:09:38.687Z,99.99
2023-05-10T01:10:38.595Z,99.99
2023-05-10T01:11:38.646Z,99.99
2023-05-10T01:12:38.676Z,99.99
2023-05-10T01:13:38.591Z,99.99
2023-05-10T01:14:38.576Z,99.99
2023-05-10T01:15:38.612Z,99.99
2023-05-10T01:16:38.542Z,99.99
2023-05-10T01:17:38.555Z,99.99
2023-05-10T01:18:38.592Z,99.99
2023-05-10T01:19:38.519Z,99.99
2023-05-10T01:20:38.539Z,99.99
2023-05-10T01:21:38.522Z,99.99
2023-05-10T01:22:38.532Z,99.99
2023-05-10T01:23:38.495Z,99.99
2023-05-10T01:24:38.494Z,99.99
2023-05-10T01:25:38.485Z,99.99
2023-05-10T01:26:38.513Z,99.99
2023-05-10T01:27:38.459Z,99.99
2023-05-10T01:28:38.456Z,99.99
2023-05-10T01:29:38.436Z,99.99
2023-05-10T01:30:38.477Z,99.99
2023-05-10T01:31:38.443Z,99.99
2023-05-10T01:32:38.465Z,99.99
2023-05-10T01:33:38.462Z,99.99
2023-05-10T01:34:38.407Z,99.99
2023-05-10T01:35:38.437Z,99.99
2023-05-10T01:36:38.373Z,99.99
2023-05-10T01:37:38.432Z,99.99
2023-05-10T01:38:38.492Z,99.99
2023-05-10T01:39:38.359Z,99.99
2023-05-10T01:40:38.349Z,99.99
2023-05-10T01:41:38.367Z,99.99
2023-05-10T01:42:38.316Z,99.99
2023-05-10T01:43:38.314Z,99.99
2023-05-10T01:44:38.362Z,99.99
2023-05-10T01:45:38.316Z,99.99
2023-05-10T01:46:38.409Z,99.99
2023-05-10T01:47:38.330Z,99.99
2023-05-10T01:48:38.295Z,99.99
2023-05-10T01:49:38.265Z,99.99
2023-05-10T01:50:38.292Z,99.99
2023-05-10T01:51:38.245Z,99.99
2023-05-10T01:52:38.229Z,99.99
2023-05-10T01:53:38.237Z,99.99
2023-05-10T01:54:38.383Z,99.99
2023-05-10T01:55:38.251Z,99.99
2023-05-10T01:56:38.195Z,99.99
2023-05-10T01:57:38.190Z,99.99
2023-05-10T01:58:38.182Z,99.99
2023-05-10T01:59:38.196Z,99.99
2023-05-10T02:00:38.181Z,99.99
2023-05-10T02:01:38.175Z,99.99
2023-05-10T02:02:38.231Z,99.99
2023-05-10T02:03:38.179Z,99.99
2023-05-10T02:04:38.141Z,99.99
2023-05-10T02:05:38.167Z,99.99
2023-05-10T02:06:38.098Z,99.99
2023-05-10T02:07:38.105Z,99.99
2023-05-10T02:08:38.085Z,99.99
2023-05-10T02:09:38.082Z,99.99
2023-05-10T02:10:38.066Z,99.99
2023-05-10T02:11:38.086Z,99.99
2023-05-10T02:12:38.041Z,99.99
2023-05-10T02:13:38.035Z,99.99
2023-05-10T02:14:38.022Z,99.99
2023-05-10T02:15:38.024Z,99.99
2023-05-10T02:16:38.017Z,99.99
2023-05-10T02:17:38.109Z,99.99
2023-05-10T02:18:37.995Z,99.99
2023-05-10T02:19:37.997Z,99.99
2023-05-10T02:20:38.002Z,99.99
2023-05-10T02:21:37.967Z,99.99
2023-05-10T02:22:37.956Z,99.99
2023-05-10T02:23:38.011Z,99.99
2023-05-10T02:24:37.937Z,99.99
2023-05-10T02:25:37.942Z,99.99
2023-05-10T02:26:37.907Z,99.99
2023-05-10T02:27:37.980Z,99.99
2023-05-10T02:28:37.914Z,99.99
2023-05-10T02:29:37.939Z,99.99
2023-05-10T02:30:37.908Z,99.99
2023-05-10T02:31:37.895Z,99.99
2023-05-10T02:32:37.909Z,99.99
2023-05-10T02:33:37.886Z,99.99
2023-05-10T02:34:37.908Z,99.99
2023-05-10T02:35:37.839Z,99.99
2023-05-10T02:36:37.943Z,99.99
2023-05-10T02:37:37.839Z,99.99
2023-05-10T02:38:37.840Z,99.99
2023-05-10T02:39:37.827Z,99.99
2023-05-10T02:40:37.821Z,99.99
2023-05-10T02:41:37.795Z,99.99
2023-05-10T02:42:37.806Z,99.99
2023-05-10T02:43:37.798Z,99.99
2023-05-10T02:44:37.799Z,99.99
2023-05-10T02:45:37.789Z,99.99
2023-05-10T02:46:37.812Z,99.99
2023-05-10T02:47:37.833Z,99.99
2023-05-10T02:48:37.749Z,99.99
2023-05-10T02:49:37.736Z,99.99
2023-05-10T02:50:37.731Z,99.99
2023-05-10T02:51:37.743Z,99.99
2023-05-10T02:52:37.717Z,99.99
2023-05-10T02:53:37.700Z,99.99
2023-05-10T02:54:37.708Z,99.99
2023-05-10T02:55:37.695Z,99.99
2023-05-10T02:56:37.688Z,99.99
2023-05-10T02:57:37.716Z,99.99
2023-05-10T02:58:37.691Z,99.99
2023-05-10T02:59:37.662Z,99.99
2023-05-10T03:00:37.682Z,99.99
2023-05-10T03:01:37.682Z,99.99
2023-05-10T03:02:37.720Z,99.99
2023-05-10T03:03:37.693Z,99.99
2023-05-10T03:04:37.711Z,99.99
2023-05-10T03:05:37.621Z,99.99
2023-05-10T03:06:37.642Z,99.99
2023-05-10T03:07:37.657Z,99.99
2023-05-10T03:08:37.586Z,99.99
2023-05-10T03:09:37.601Z,99.99
2023-05-10T03:10:37.580Z,99.99
2023-05-10T03:11:37.564Z,99.99
2023-05-10T03:12:37.556Z,99.99
2023-05-10T03:13:37.544Z,99.99
2023-05-10T03:14:37.583Z,99.99
2023-05-10T03:15:37.637Z,99.99
2023-05-10T03:16:37.536Z,99.99
2023-05-10T03:17:37.528Z,99.99
2023-05-10T03:18:37.526Z,99.99
2023-05-10T03:19:37.502Z,99.99
2023-05-10T03:20:37.499Z,99.99
2023-05-10T03:21:37.502Z,99.99
2023-05-10T03:22:37.477Z,99.99
2023-05-10T03:23:37.501Z,99.99
2023-05-10T03:24:37.479Z,99.99
2023-05-10T03:25:37.448Z,99.99
2023-05-10T03:26:37.447Z,99.99
2023-05-10T03:27:37.452Z,99.99
2023-05-10T03:28:37.439Z,99.99
2023-05-10T03:29:37.591Z,99.99
2023-05-10T03:30:37.474Z,99.99
2023-05-10T03:31:37.495Z,99.99
2023-05-10T03:32:37.457Z,99.99
2023-05-10T03:33:37.406Z,99.99
2023-05-10T03:34:37.397Z,99.99
2023-05-10T03:35:37.369Z,99.99
2023-05-10T03:36:37.418Z,99.99
2023-05-10T03:37:37.406Z,99.99
2023-05-10T03:38:37.366Z,99.99
2023-05-10T03:39:37.352Z,99.99
2023-05-10T03:40:37.366Z,99.99
2023-05-10T03:41:37.327Z,99.99
2023-05-10T03:42:37.353Z,99.99
2023-05-10T03:43:37.340Z,99.99
2023-05-10T03:44:37.338Z,99.99
2023-05-10T03:45:37.302Z,99.99
2023-05-10T03:46:37.321Z,99.99
2023-05-10T03:47:37.310Z,99.99
2023-05-10T03:48:37.275Z,99.99
2023-05-10T03:49:37.274Z,99.99
2023-05-10T03:50:37.360Z,99.99
2023-05-10T03:51:37.274Z,99.99
2023-05-10T03:52:37.291Z,99.99
2023-05-10T03:53:37.257Z,99.99
2023-05-10T03:54:37.243Z,99.99
2023-05-10T03:55:37.228Z,99.99
2023-05-10T03:56:37.214Z,99.99
2023-05-10T03:57:37.216Z,99.99
2023-05-10T03:58:37.198Z,99.99
2023-05-10T03:59:37.246Z,99.99
2023-05-10T04:00:37.222Z,99.99
2023-05-10T04:01:37.243Z,99.99
2023-05-10T04:02:38.286Z,99.99
2023-05-10T04:03:37.233Z,99.99
2023-05-10T04:04:37.143Z,99.99
2023-05-10T04:05:37.117Z,99.99
2023-05-10T04:06:37.179Z,99.99
2023-05-10T04:07:37.131Z,99.99
2023-05-10T04:08:37.111Z,99.99
2023-05-10T04:09:37.103Z,99.99
2023-05-10T04:10:37.131Z,99.99
2023-05-10T04:11:37.088Z,99.99
2023-05-10T04:12:37.122Z,99.99
2023-05-10T04:13:37.067Z,99.99
2023-05-10T04:14:37.055Z,99.99
2023-05-10T04:15:37.108Z,99.99
2023-05-10T04:16:37.082Z,99.99
2023-05-10T04:17:37.078Z,99.99
2023-05-10T04:18:37.023Z,99.99
2023-05-10T04:19:37.009Z,99.99
2023-05-10T04:20:37.004Z,99.99
2023-05-10T04:21:37.016Z,99.99
2023-05-10T04:22:36.998Z,99.99
2023-05-10T04:23:36.978Z,99.99
2023-05-10T04:24:37.000Z,99.99
2023-05-10T04:25:37.018Z,99.99
2023-05-10T04:26:36.967Z,99.99
2023-05-10T04:27:36.988Z,99.99
2023-05-10T04:28:36.948Z,99.99
2023-05-10T04:29:36.934Z,99.99
2023-05-10T04:30:36.977Z,99.99
2023-05-10T04:31:36.911Z,99.99
2023-05-10T04:32:36.944Z,99.99
2023-05-10T04:33:36.949Z,99.99
2023-05-10T04:34:36.879Z,99.99
2023-05-10T04:35:36.886Z,99.99
2023-05-10T04:36:36.900Z,99.99
2023-05-10T04:37:36.881Z,99.99
2023-05-10T04:38:36.862Z,99.99
2023-05-10T04:39:36.910Z,99.99
2023-05-10T04:40:36.861Z,99.99
2023-05-10T04:41:36.808Z,99.99
2023-05-10T04:42:36.838Z,99.99
2023-05-10T04:43:36.810Z,99.99
2023-05-10T04:44:36.792Z,99.99
2023-05-10T04:45:36.853Z,99.99
2023-05-10T04:46:36.845Z,99.99
2023-05-10T04:47:36.782Z,99.99
2023-05-10T04:48:36.775Z,99.99
2023-05-10T04:49:36.767Z,99.99
2023-05-10T04:50:36.762Z,99.99
2023-05-10T04:51:36.799Z,99.99
2023-05-10T04:52:36.728Z,99.99
2023-05-10T04:53:36.733Z,99.99
2023-05-10T04:54:36.718Z,99.99
2023-05-10T04:55:36.720Z,99.99
2023-05-10T04:56:36.802Z,99.99
2023-05-10T04:57:36.801Z,99.99
2023-05-10T04:58:36.670Z,99.99
2023-05-10T04:59:36.659Z,99.99
2023-05-10T05:00:36.648Z,99.99
2023-05-10T05:01:36.644Z,99.99
2023-05-10T05:02:36.752Z,99.99
2023-05-10T05:03:36.794Z,99.99
2023-05-10T05:04:36.655Z,99.99
2023-05-10T05:05:36.623Z,99.99
2023-05-10T05:06:36.614Z,99.99
2023-05-10T05:07:36.585Z,99.99
2023-05-10T05:08:36.593Z,99.99
2023-05-10T05:09:36.623Z,99.99
2023-05-10T05:10:36.580Z,99.99
2023-05-10T05:11:36.592Z,99.99
2023-05-10T05:12:36.563Z,99.99
2023-05-10T05:13:36.560Z,99.99
2023-05-10T05:14:36.541Z,99.99
2023-05-10T05:15:37.192Z,99.99
2023-05-10T05:16:36.571Z,99.99
2023-05-10T05:17:36.524Z,99.99
2023-05-10T05:18:36.505Z,99.99
2023-05-10T05:19:36.500Z,99.99
2023-05-10T05:20:36.489Z,99.99
2023-05-10T05:21:36.522Z,99.99
2023-05-10T05:22:36.483Z,99.99
2023-05-10T05:23:36.538Z,99.99
2023-05-10T05:24:36.515Z,99.99
2023-05-10T05:25:36.686Z,99.99
2023-05-10T05:26:36.452Z,99.99
2023-05-10T05:27:36.458Z,99.99
2023-05-10T05:28:36.434Z,99.99
2023-05-10T05:29:36.413Z,99.99
2023-05-10T05:30:36.411Z,99.99
2023-05-10T05:31:36.459Z,99.99
2023-05-10T05:32:36.473Z,99.99
2023-05-10T05:33:36.416Z,99.99
2023-05-10T05:34:36.379Z,99.99
2023-05-10T05:35:36.353Z,99.99
2023-05-10T05:36:37.651Z,99.99
2023-05-10T05:37:36.348Z,99.99
2023-05-10T05:38:36.342Z,99.99
2023-05-10T05:39:36.549Z,99.99
2023-05-10T05:40:36.335Z,99.99
2023-05-10T05:41:36.311Z,99.99
2023-05-10T05:42:36.369Z,99.99
2023-05-10T05:43:38.419Z,99.99
2023-05-10T05:44:36.332Z,99.99
2023-05-10T05:45:36.335Z,99.99
2023-05-10T05:46:36.272Z,99.99
2023-05-10T05:47:36.305Z,99.99
2023-05-10T05:48:36.271Z,99.99
2023-05-10T05:49:36.246Z,99.99
2023-05-10T05:50:36.271Z,99.99
2023-05-10T05:51:36.242Z,99.99
2023-05-10T05:52:36.241Z,99.99
2023-05-10T05:53:36.283Z,99.99
2023-05-10T05:54:36.223Z,99.99
2023-05-10T05:55:36.260Z,99.99
2023-05-10T05:56:36.211Z,99.99
2023-05-10T05:57:36.223Z,99.99
2023-05-10T05:58:36.189Z,99.99
2023-05-10T05:59:36.179Z,99.99
2023-05-10T06:00:36.174Z,99.99
2023-05-10T06:01:36.146Z,99.99
2023-05-10T06:02:36.291Z,99.99
2023-05-10T06:03:37.080Z,99.99
2023-05-10T06:04:36.328Z,99.99
2023-05-10T06:05:36.127Z,99.99
2023-05-10T06:06:36.142Z,99.99
2023-05-10T06:07:36.128Z,99.99
2023-05-10T06:08:36.103Z,99.99
2023-05-10T06:09:36.072Z,99.99
2023-05-10T06:10:36.119Z,99.99
2023-05-10T06:11:36.130Z,99.99
2023-05-10T06:12:36.059Z,99.99
2023-05-10T06:13:36.082Z,99.99
2023-05-10T06:14:36.056Z,99.99
2023-05-10T06:15:36.050Z,99.99
2023-05-10T06:16:36.189Z,99.07
2023-05-10T06:17:36.036Z,98.21
2023-05-10T06:18:36.106Z,98.01
2023-05-10T06:19:36.068Z,98.16
2023-05-10T06:20:35.998Z,96.23
2023-05-10T06:21:35.982Z,96.23
2023-05-10T06:22:36.023Z,96.19
2023-05-10T06:23:35.958Z,96.39
2023-05-10T06:24:35.957Z,96.50
2023-05-10T06:25:35.933Z,95.94
2023-05-10T06:26:35.946Z,95.34
2023-05-10T06:27:35.916Z,94.53
2023-05-10T06:28:35.955Z,94.73
2023-05-10T06:29:35.962Z,93.91
2023-05-10T06:30:35.908Z,95.59
2023-05-10T06:31:35.893Z,94.32
2023-05-10T06:32:35.938Z,94.12
2023-05-10T06:33:35.874Z,93.97
2023-05-10T06:34:35.905Z,94.18
2023-05-10T06:35:35.853Z,94.34
2023-05-10T06:36:35.884Z,92.82
2023-05-10T06:37:35.831Z,92.61
2023-05-10T06:38:35.844Z,93.46
2023-05-10T06:39:35.858Z,93.26
2023-05-10T06:40:35.838Z,92.86
2023-05-10T06:41:35.804Z,93.61
2023-05-10T06:42:35.796Z,95.13
2023-05-10T06:43:35.821Z,94.27
2023-05-10T06:44:35.773Z,94.64
2023-05-10T06:45:36.125Z,93.83
2023-05-10T06:46:35.789Z,93.42
2023-05-10T06:47:38.764Z,93.16
2023-05-10T06:48:35.741Z,93.02
2023-05-10T06:49:35.768Z,92.65
2023-05-10T06:50:35.727Z,94.13
2023-05-10T06:51:35.723Z,93.93
2023-05-10T06:52:35.714Z,94.18
2023-05-10T06:53:35.714Z,93.52
2023-05-10T06:54:35.691Z,93.16
2023-05-10T06:55:35.761Z,93.91
2023-05-10T06:56:35.669Z,94.32
2023-05-10T06:57:35.683Z,92.80
2023-05-10T06:58:35.658Z,93.10
2023-05-10T06:59:35.758Z,94.37
2023-05-10T07:00:35.689Z,94.26
2023-05-10T07:01:35.750Z,94.57
2023-05-10T07:02:35.643Z,94.46
2023-05-10T07:03:35.645Z,94.10
2023-05-10T07:04:35.682Z,94.37
2023-05-10T07:05:35.891Z,94.77
2023-05-10T07:06:35.588Z,94.46
2023-05-10T07:07:35.603Z,95.28
2023-05-10T07:08:35.573Z,94.22
2023-05-10T07:09:35.617Z,95.13
2023-05-10T07:10:35.550Z,94.42
2023-05-10T07:11:35.596Z,92.55
2023-05-10T07:12:35.550Z,94.03
2023-05-10T07:13:35.578Z,92.82
2023-05-10T07:14:35.526Z,92.91
2023-05-10T07:15:35.524Z,92.91
2023-05-10T07:16:35.523Z,94.43
2023-05-10T07:17:35.670Z,93.62
2023-05-10T07:18:35.493Z,93.12
2023-05-10T07:19:35.468Z,92.10
2023-05-10T07:20:35.527Z,92.61
2023-05-10T07:21:35.539Z,92.61
2023-05-10T07:22:35.470Z,92.10
2023-05-10T07:23:35.456Z,92.82
2023-05-10T07:24:35.455Z,92.71
2023-05-10T07:25:35.423Z,92.87
2023-05-10T07:26:36.168Z,92.06
2023-05-10T07:27:35.461Z,91.86
2023-05-10T07:28:35.398Z,91.96
2023-05-10T07:29:35.403Z,92.67
2023-05-10T07:30:35.471Z,91.86
2023-05-10T07:31:35.422Z,92.16
2023-05-10T07:32:35.463Z,92.47
2023-05-10T07:33:35.594Z,93.38
2023-05-10T07:34:35.348Z,92.21
2023-05-10T07:35:35.356Z,90.62
2023-05-10T07:36:35.389Z,91.89
2023-05-10T07:37:35.356Z,92.60
2023-05-10T07:38:35.341Z,93.15
2023-05-10T07:39:35.416Z,93.05
2023-05-10T07:40:35.298Z,94.17
2023-05-10T07:41:35.814Z,93.45
2023-05-10T07:42:35.267Z,93.65
2023-05-10T07:43:35.277Z,94.62
2023-05-10T07:44:35.246Z,94.32
2023-05-10T07:45:35.319Z,94.53
2023-05-10T07:46:35.241Z,94.32
2023-05-10T07:47:35.270Z,93.37
2023-05-10T07:48:35.208Z,92.80
2023-05-10T07:49:35.218Z,93.00
2023-05-10T07:50:35.231Z,93.30
2023-05-10T07:51:35.394Z,93.41
2023-05-10T07:52:35.189Z,93.00
2023-05-10T07:53:35.174Z,92.65
2023-05-10T07:54:35.175Z,93.21
2023-05-10T07:55:35.163Z,93.16
2023-05-10T07:56:35.169Z,92.86
2023-05-10T07:57:35.146Z,93.57
2023-05-10T07:58:35.141Z,93.16
2023-05-10T07:59:35.138Z,92.76
2023-05-10T08:00:35.122Z,92.25
2023-05-10T08:01:35.140Z,92.05
2023-05-10T08:02:35.184Z,92.86
2023-05-10T08:03:35.146Z,92.14
2023-05-10T08:04:35.101Z,92.10
2023-05-10T08:05:35.865Z,91.05
2023-05-10T08:06:35.273Z,92.36
2023-05-10T08:07:35.172Z,91.82
2023-05-10T08:08:35.063Z,92.06
2023-05-10T08:09:35.069Z,92.42
2023-05-10T08:10:35.030Z,91.82
2023-05-10T08:11:35.337Z,91.66
2023-05-10T08:12:35.077Z,91.61
2023-05-10T08:13:35.056Z,90.80
2023-05-10T08:14:35.002Z,91.82
2023-05-10T08:15:35.045Z,91.82
2023-05-10T08:16:34.988Z,92.02
2023-05-10T08:17:35.002Z,90.84
2023-05-10T08:18:35.025Z,92.12
2023-05-10T08:19:34.970Z,92.42
2023-05-10T08:20:34.948Z,91.61
2023-05-10T08:21:34.956Z,90.44
2023-05-10T08:22:34.950Z,90.38
2023-05-10T08:23:34.944Z,92.71
2023-05-10T08:24:34.934Z,92.21
2023-05-10T08:25:34.976Z,93.30
2023-05-10T08:26:34.894Z,94.48
2023-05-10T08:27:34.920Z,94.62
2023-05-10T08:28:34.926Z,95.13
2023-05-10T08:29:46.286Z,94.42
2023-05-10T08:30:36.042Z,95.34
2023-05-10T08:31:34.887Z,94.93
2023-05-10T08:32:34.891Z,95.64
2023-05-10T08:33:34.860Z,95.64
2023-05-10T08:34:34.866Z,95.54
2023-05-10T08:35:34.841Z,96.86
2023-05-10T08:36:34.856Z,96.81
2023-05-10T08:37:34.815Z,95.13
2023-05-10T08:38:34.820Z,96.41
2023-05-10T08:39:34.816Z,96.61
2023-05-10T08:40:34.796Z,95.64
2023-05-10T08:41:34.785Z,95.84
2023-05-10T08:42:34.761Z,96.61
2023-05-10T08:43:34.759Z,95.43
2023-05-10T08:44:34.736Z,95.84
2023-05-10T08:45:34.734Z,95.74
2023-05-10T08:46:34.810Z,96.25
2023-05-10T08:47:34.775Z,96.96
2023-05-10T08:48:34.813Z,95.34
2023-05-10T08:49:34.771Z,96.45
2023-05-10T08:50:34.694Z,95.43
2023-05-10T08:51:34.686Z,95.54
2023-05-10T08:52:34.717Z,95.54
2023-05-10T08:53:34.713Z,97.11
2023-05-10T08:54:35.297Z,96.35
2023-05-10T08:55:34.664Z,97.51
2023-05-10T08:56:34.729Z,96.50
2023-05-10T08:57:34.646Z,96.35
2023-05-10T08:58:34.639Z,97.83
2023-05-10T08:59:34.661Z,95.74
2023-05-10T09:00:34.734Z,95.54
2023-05-10T09:01:34.614Z,96.25
2023-05-10T09:02:34.629Z,96.75
2023-05-10T09:03:34.598Z,96.35
2023-05-10T09:04:34.663Z,96.41
2023-05-10T09:05:34.614Z,94.94
2023-05-10T09:06:34.552Z,94.23
2023-05-10T09:07:36.278Z,95.20
2023-05-10T09:08:34.566Z,93.38
2023-05-10T09:09:34.557Z,91.86
2023-05-10T09:10:34.563Z,94.14
2023-05-10T09:11:34.650Z,94.45
2023-05-10T09:12:34.514Z,92.42
2023-05-10T09:13:34.538Z,91.82
2023-05-10T09:14:34.514Z,90.86
2023-05-10T09:15:34.509Z,90.70
2023-05-10T09:16:34.564Z,90.91
2023-05-10T09:17:34.536Z,90.86
2023-05-10T09:18:34.533Z,90.34
2023-05-10T09:19:34.452Z,90.84
2023-05-10T09:20:34.470Z,90.40
2023-05-10T09:21:34.457Z,91.51
2023-05-10T09:22:34.462Z,92.63
2023-05-10T09:23:34.428Z,92.12
2023-05-10T09:24:34.424Z,92.12
2023-05-10T09:25:34.415Z,91.61
2023-05-10T09:26:34.395Z,90.20
2023-05-10T09:27:34.460Z,92.22
2023-05-10T09:28:34.373Z,91.87
2023-05-10T09:29:34.409Z,90.31
2023-05-10T09:30:34.430Z,91.78
2023-05-10T09:31:34.368Z,89.06
2023-05-10T09:32:34.366Z,88.55
2023-05-10T09:33:34.364Z,88.55
2023-05-10T09:34:34.331Z,88.15
2023-05-10T09:35:34.345Z,87.99
2023-05-10T09:36:34.311Z,88.96
2023-05-10T09:37:34.320Z,88.15
2023-05-10T09:38:34.295Z,89.36
2023-05-10T09:39:34.322Z,88.01
2023-05-10T09:40:34.268Z,87.40
2023-05-10T09:41:34.272Z,87.10
2023-05-10T09:42:34.266Z,86.93
2023-05-10T09:43:34.274Z,88.35
2023-05-10T09:44:34.270Z,86.39
2023-05-10T09:45:37.030Z,87.10
2023-05-10T09:46:34.323Z,84.89
2023-05-10T09:47:34.230Z,85.16
2023-05-10T09:48:34.256Z,85.16
2023-05-10T09:49:34.275Z,84.65
2023-05-10T09:50:34.203Z,85.11
2023-05-10T09:51:36.155Z,84.74
2023-05-10T09:52:34.168Z,82.92
2023-05-10T09:53:34.180Z,81.87
2023-05-10T09:54:34.157Z,83.69
2023-05-10T09:55:34.153Z,82.44
2023-05-10T09:56:34.189Z,80.69
2023-05-10T09:57:35.259Z,79.08
2023-05-10T09:58:34.156Z,79.02
2023-05-10T09:59:34.164Z,82.68
2023-05-10T10:00:34.117Z,80.83
2023-05-10T10:01:34.141Z,79.09
2023-05-10T10:02:34.140Z,79.43
2023-05-10T10:03:34.359Z,81.24
2023-05-10T10:04:34.198Z,80.33
2023-05-10T10:05:34.556Z,82.86
2023-05-10T10:06:34.777Z,82.62
2023-05-10T10:07:34.197Z,82.88
2023-05-10T10:08:34.043Z,79.32
2023-05-10T10:09:34.103Z,81.19
2023-05-10T10:10:34.043Z,80.89
2023-05-10T10:11:34.111Z,80.43
2023-05-10T10:12:34.076Z,81.41
2023-05-10T10:13:34.071Z,84.03
2023-05-10T10:14:34.076Z,81.10
2023-05-10T10:15:34.235Z,81.21
2023-05-10T10:16:34.021Z,81.41
2023-05-10T10:17:34.080Z,81.01
2023-05-10T10:18:34.048Z,84.65
2023-05-10T10:19:33.956Z,86.97
2023-05-10T10:20:33.958Z,85.62
2023-05-10T10:21:33.942Z,82.15
2023-05-10T10:22:33.925Z,82.25
2023-05-10T10:23:33.941Z,82.71
2023-05-10T10:24:33.943Z,81.61
2023-05-10T10:25:33.937Z,82.76
2023-05-10T10:26:33.918Z,82.65
2023-05-10T10:27:33.897Z,81.55
2023-05-10T10:28:33.891Z,83.26
2023-05-10T10:29:33.909Z,83.06
2023-05-10T10:30:33.855Z,82.65
2023-05-10T10:31:33.935Z,83.70
2023-05-10T10:32:33.888Z,84.89
2023-05-10T10:33:33.863Z,85.68
2023-05-10T10:34:33.853Z,87.82
2023-05-10T10:35:33.835Z,85.82
2023-05-10T10:36:34.821Z,83.60
2023-05-10T10:37:33.818Z,82.96
2023-05-10T10:38:33.810Z,82.71
2023-05-10T10:39:33.792Z,81.63
2023-05-10T10:40:34.859Z,79.08
2023-05-10T10:41:33.860Z,78.78
2023-05-10T10:42:33.759Z,79.54
2023-05-10T10:43:33.772Z,81.26
2023-05-10T10:44:33.747Z,77.00
2023-05-10T10:45:33.754Z,81.41
2023-05-10T10:46:33.850Z,80.12
2023-05-10T10:47:33.750Z,77.73
2023-05-10T10:48:33.729Z,78.21
2023-05-10T10:49:33.810Z,81.73
2023-05-10T10:50:33.702Z,78.23
2023-05-10T10:51:33.718Z,79.91
2023-05-10T10:52:33.839Z,74.01
2023-05-10T10:53:33.677Z,75.82
2023-05-10T10:54:33.701Z,78.53
2023-05-10T10:55:33.701Z,80.27
2023-05-10T10:56:34.748Z,78.89
2023-05-10T10:57:33.688Z,76.21
2023-05-10T10:58:33.636Z,71.50
2023-05-10T10:59:33.613Z,73.50
2023-05-10T11:00:33.616Z,76.76
2023-05-10T11:01:33.702Z,79.53
2023-05-10T11:02:33.707Z,74.60
2023-05-10T11:03:33.611Z,71.50
2023-05-10T11:04:33.600Z,73.37
2023-05-10T11:05:33.606Z,72.60
2023-05-10T11:06:33.572Z,76.28
2023-05-10T11:07:33.558Z,73.20
2023-05-10T11:08:35.036Z,70.46
2023-05-10T11:09:33.539Z,73.07
2023-05-10T11:10:33.546Z,72.77
2023-05-10T11:11:33.530Z,70.06
2023-05-10T11:12:33.527Z,71.63
2023-05-10T11:13:33.501Z,69.42
2023-05-10T11:14:33.583Z,69.56
2023-05-10T11:15:33.556Z,73.43
2023-05-10T11:16:33.562Z,73.13
2023-05-10T11:17:33.519Z,71.03
2023-05-10T11:18:33.536Z,70.29
2023-05-10T11:19:33.481Z,68.92
2023-05-10T11:20:33.544Z,75.14
2023-05-10T11:21:33.475Z,74.67
2023-05-10T11:22:33.459Z,72.83
2023-05-10T11:23:33.440Z,72.43
2023-05-10T11:24:33.461Z,73.03
2023-05-10T11:25:33.463Z,74.57
2023-05-10T11:26:33.456Z,72.94
2023-05-10T11:27:33.417Z,72.27
2023-05-10T11:28:33.417Z,69.73
2023-05-10T11:29:33.367Z,70.43
2023-05-10T11:30:33.457Z,70.23
2023-05-10T11:31:33.436Z,68.82
2023-05-10T11:32:33.394Z,69.79
2023-05-10T11:33:33.347Z,66.55
2023-05-10T11:34:33.337Z,65.75
2023-05-10T11:35:33.376Z,65.05
2023-05-10T11:36:33.513Z,66.52
2023-05-10T11:37:33.341Z,68.29
2023-05-10T11:38:33.314Z,67.52
2023-05-10T11:39:33.383Z,69.23
2023-05-10T11:40:33.315Z,66.28
2023-05-10T11:41:33.309Z,67.79
2023-05-10T11:42:33.337Z,67.59
2023-05-10T11:43:33.299Z,65.55
2023-05-10T11:44:33.299Z,63.98
2023-05-10T11:45:33.254Z,64.51
2023-05-10T11:46:33.412Z,66.68
2023-05-10T11:47:33.311Z,71.06
2023-05-10T11:48:33.245Z,67.85
2023-05-10T11:49:33.287Z,70.46
2023-05-10T11:50:33.236Z,71.16
2023-05-10T11:51:33.209Z,68.99
2023-05-10T11:52:33.197Z,65.78
2023-05-10T11:53:33.181Z,64.22
2023-05-10T11:54:33.182Z,63.78
2023-05-10T11:55:33.231Z,66.25
2023-05-10T11:56:33.242Z,66.65
2023-05-10T11:57:33.150Z,65.85
2023-05-10T11:58:33.156Z,67.18
2023-05-10T11:59:33.133Z,68.02
2023-05-10T12:00:33.148Z,68.72
2023-05-10T12:01:33.123Z,69.12
2023-05-10T12:02:33.219Z,69.02
2023-05-10T12:03:33.264Z,67.22
2023-05-10T12:04:33.205Z,67.75
2023-05-10T12:05:33.099Z,66.95
2023-05-10T12:06:33.205Z,66.61
2023-05-10T12:07:33.072Z,67.42
2023-05-10T12:08:33.081Z,66.21
2023-05-10T12:09:43.435Z,66.91
2023-05-10T12:10:34.061Z,66.91
2023-05-10T12:11:33.067Z,68.69
2023-05-10T12:12:33.088Z,67.29
2023-05-10T12:13:33.024Z,68.29
2023-05-10T12:14:33.031Z,67.52
2023-05-10T12:15:33.020Z,66.31
2023-05-10T12:16:33.190Z,66.58
2023-05-10T12:17:33.019Z,66.88
2023-05-10T12:18:33.024Z,66.95
2023-05-10T12:19:33.003Z,66.15
2023-05-10T12:20:32.973Z,66.82
2023-05-10T12:21:32.955Z,65.91
2023-05-10T12:22:33.018Z,65.41
2023-05-10T12:23:32.950Z,64.91
2023-05-10T12:24:32.952Z,64.48
2023-05-10T12:25:32.938Z,62.77
2023-05-10T12:26:32.946Z,64.18
2023-05-10T12:27:32.966Z,64.37
2023-05-10T12:28:32.946Z,64.11
2023-05-10T12:29:32.931Z,67.14
2023-05-10T12:30:32.908Z,66.14
2023-05-10T12:31:32.952Z,66.95
2023-05-10T12:32:32.935Z,66.85
2023-05-10T12:33:32.903Z,66.05
2023-05-10T12:34:32.896Z,67.78
2023-05-10T12:35:32.853Z,68.12
2023-05-10T12:36:32.845Z,67.11
2023-05-10T12:37:32.846Z,66.84
2023-05-10T12:38:32.855Z,67.14
2023-05-10T12:39:32.892Z,67.35
2023-05-10T12:40:32.875Z,67.47
2023-05-10T12:41:32.798Z,69.22
2023-05-10T12:42:32.842Z,69.42
2023-05-10T12:43:32.788Z,70.43
2023-05-10T12:44:32.786Z,70.76
2023-05-10T12:45:32.818Z,72.03
2023-05-10T12:46:32.846Z,71.87
2023-05-10T12:47:32.778Z,73.58
2023-05-10T12:48:32.781Z,74.18
2023-05-10T12:49:32.751Z,75.29
2023-05-10T12:50:32.750Z,73.61
2023-05-10T12:51:32.753Z,74.66
2023-05-10T12:52:32.725Z,74.29